Terminal Aerodrome Forecast
Issued by NWS

Home | Current Version | Previous Version | Text Only | Print | Product List | Glossary On
Versions: 1 2 3 4 5 6 7 8 9 10 11 12 13 14 15 16 17 18
000
FTUS43 KDLH 061700
TAFBRD
TAF
KBRD 061733Z 0618/0718 14010KT P6SM OVC015
     FM061900 13013G20KT P6SM SCT025 BKN150
     FM070100 14013KT P6SM VCSH BKN025 OVC050 WS015/17040KT
      TEMPO 0704/0707 5SM -RA BR OVC013
     FM070900 15009KT 3SM BR VCSH OVC008 WS015/17040KT
     FM071300 16012G20KT 4SM -RA BR OVC008=

USA.gov is the U.S. government's official web portal to all federal, state and local government web resources and services.